createdAt,value
2022-08-09T00:02:29.168Z,1.30
2022-08-09T00:07:31.169Z,1.40
2022-08-09T00:12:46.907Z,1.25
2022-08-09T00:18:07.477Z,1.38
2022-08-09T00:23:57.236Z,1.40
2022-08-09T00:28:35.947Z,1.05
2022-08-09T00:33:51.036Z,1.80
2022-08-09T00:38:54.271Z,1.25
2022-08-09T00:44:19.576Z,1.73
2022-08-09T00:49:18.266Z,1.17
2022-08-09T00:54:31.580Z,1.40
2022-08-09T00:59:41.512Z,1.30
2022-08-09T01:05:13.700Z,1.58
2022-08-09T01:10:41.806Z,1.60
2022-08-09T01:15:51.994Z,1.30
2022-08-09T01:26:46.254Z,1.60
2022-08-09T01:32:30.873Z,1.58
2022-08-09T01:37:16.769Z,1.70
2022-08-09T01:42:33.517Z,1.65
2022-08-09T01:47:44.902Z,1.20
2022-08-09T01:52:48.153Z,1.40
2022-08-09T01:57:55.931Z,1.20
2022-08-09T02:02:59.246Z,1.35
2022-08-09T02:08:40.186Z,1.60
2022-08-09T02:13:37.709Z,1.73
2022-08-09T02:18:47.724Z,1.50
2022-08-09T02:23:54.977Z,1.48
2022-08-09T02:29:02.293Z,1.95
2022-08-09T02:34:13.675Z,1.50
2022-08-09T02:39:54.969Z,1.60
2022-08-09T02:45:03.859Z,1.63
2022-08-09T02:50:13.489Z,1.65
2022-08-09T02:55:20.736Z,1.48
2022-08-09T03:00:26.112Z,1.20
2022-08-09T03:05:34.531Z,1.27
2022-08-09T03:10:38.614Z,1.65
2022-08-09T03:16:06.650Z,1.40
2022-08-09T03:21:06.580Z,1.67
2022-08-09T03:26:08.690Z,1.63
2022-08-09T03:31:21.238Z,1.42
2022-08-09T03:36:27.688Z,1.70
2022-08-09T03:41:45.854Z,1.50
2022-08-09T03:46:51.010Z,1.42
2022-08-09T03:52:00.349Z,1.50
2022-08-09T03:57:17.933Z,1.55
2022-08-09T04:02:26.892Z,1.55
2022-08-09T04:07:33.699Z,1.50
2022-08-09T04:12:53.643Z,1.38
2022-08-09T04:17:57.754Z,1.65
2022-08-09T04:22:59.973Z,1.40
2022-08-09T04:28:03.624Z,1.52
2022-08-09T04:33:05.802Z,1.65
2022-08-09T04:38:10.545Z,1.40
2022-08-09T04:43:12.548Z,1.50
2022-08-09T04:48:16.041Z,1.40
2022-08-09T04:53:18.089Z,1.50
2022-08-09T04:58:20.031Z,1.52
2022-08-09T05:03:40.435Z,1.10
2022-08-09T05:08:47.782Z,1.80
2022-08-09T05:13:50.046Z,1.67
2022-08-09T05:18:59.108Z,1.55
2022-08-09T05:24:03.738Z,1.20
2022-08-09T05:29:06.098Z,1.60
2022-08-09T05:34:07.974Z,1.50
2022-08-09T05:39:28.268Z,1.52
2022-08-09T05:44:34.610Z,1.70
2022-08-09T05:50:26.004Z,1.20
2022-08-09T05:55:03.257Z,1.40
2022-08-09T06:00:10.018Z,1.10
2022-08-09T06:05:16.295Z,1.13
2022-08-09T06:10:18.544Z,1.10
2022-08-09T06:15:21.349Z,1.05
2022-08-09T06:20:23.465Z,1.20
2022-08-09T06:25:26.466Z,1.10
2022-08-09T06:30:29.183Z,0.98
2022-08-09T06:35:56.498Z,1.10
2022-08-09T06:40:55.051Z,1.20
2022-08-09T06:46:06.593Z,1.20
2022-08-09T06:51:12.910Z,1.58
2022-08-09T06:56:16.795Z,1.20
2022-08-09T07:01:24.008Z,1.30
2022-08-09T07:06:29.612Z,1.35
2022-08-09T07:11:34.196Z,2.22
2022-08-09T07:16:55.319Z,5.68
2022-08-09T07:22:00.036Z,3.38
2022-08-09T07:27:02.390Z,2.60
2022-08-09T07:32:05.253Z,2.03
2022-08-09T07:37:15.639Z,1.80
2022-08-09T07:42:18.015Z,1.77
2022-08-09T07:47:21.036Z,2.03
2022-08-09T07:52:24.211Z,2.05
2022-08-09T07:57:35.861Z,3.20
2022-08-09T08:02:42.621Z,2.90
2022-08-09T08:09:01.456Z,2.40
2022-08-09T08:13:06.877Z,3.28
2022-08-09T08:18:14.511Z,3.13
2022-08-09T08:23:18.811Z,1.63
2022-08-09T08:28:32.190Z,2.70
2022-08-09T08:33:40.615Z,1.63
2022-08-09T08:38:54.291Z,1.40
2022-08-09T08:44:02.546Z,1.52
2022-08-09T08:49:07.837Z,1.45
2022-08-09T08:54:20.172Z,1.23
2022-08-09T08:59:23.049Z,0.88
2022-08-09T09:04:37.792Z,1.20
2022-08-09T09:10:01.769Z,1.10
2022-08-09T09:15:07.264Z,1.42
2022-08-09T09:20:15.514Z,1.23
2022-08-09T09:26:00.985Z,1.60
2022-08-09T09:31:06.135Z,1.10
2022-08-09T09:36:20.352Z,1.38
2022-08-09T09:41:33.403Z,1.75
2022-08-09T09:46:52.472Z,1.10
2022-08-09T09:52:16.649Z,1.10
2022-08-09T09:58:02.901Z,1.33
2022-08-09T10:02:56.123Z,1.38
2022-08-09T10:08:26.100Z,1.30
2022-08-09T10:13:43.344Z,1.55
2022-08-09T10:18:56.170Z,1.50
2022-08-09T10:24:04.654Z,1.33
2022-08-09T10:29:36.099Z,1.40
2022-08-09T10:34:32.785Z,1.40
2022-08-09T10:39:40.979Z,1.30
2022-08-09T10:44:59.559Z,1.00
2022-08-09T10:50:52.276Z,1.10
2022-08-09T10:56:22.608Z,1.60
2022-08-09T11:07:00.167Z,0.95
2022-08-09T11:12:12.448Z,1.17
2022-08-09T11:17:14.447Z,1.60
2022-08-09T11:22:24.551Z,1.30
2022-08-09T11:28:03.943Z,1.20
2022-08-09T11:33:26.164Z,1.30
2022-08-09T11:38:33.137Z,1.35
2022-08-09T11:43:37.434Z,1.30
2022-08-09T11:48:52.381Z,1.30
2022-08-09T11:54:27.606Z,1.35
2022-08-09T11:59:35.893Z,1.60
2022-08-09T12:04:40.630Z,1.13
2022-08-09T12:09:50.561Z,1.10
2022-08-09T12:15:07.255Z,1.33
2022-08-09T12:20:22.190Z,1.30
2022-08-09T12:25:31.991Z,2.55
2022-08-09T12:30:40.056Z,0.90
2022-08-09T12:35:42.959Z,1.48
2022-08-09T12:40:51.870Z,1.10
2022-08-09T12:46:00.165Z,1.20
2022-08-09T12:51:03.655Z,1.17
2022-08-09T12:56:39.582Z,1.27
2022-08-09T13:01:49.044Z,1.15
2022-08-09T13:12:03.216Z,1.33
2022-08-09T13:17:13.718Z,1.50
2022-08-09T13:22:38.124Z,1.52
2022-08-09T13:27:55.303Z,1.00
2022-08-09T13:32:58.339Z,1.02
2022-08-09T13:38:03.402Z,1.17
2022-08-09T13:43:09.519Z,1.27
2022-08-09T13:48:12.302Z,1.38
2022-08-09T13:53:16.816Z,1.13
2022-08-09T13:58:18.731Z,1.33
2022-08-09T14:04:02.245Z,1.15
2022-08-09T14:08:43.726Z,1.40
2022-08-09T14:14:16.418Z,1.52
2022-08-09T14:19:08.492Z,1.52
2022-08-09T14:24:18.726Z,1.23
2022-08-09T14:30:18.444Z,1.55
2022-08-09T14:34:56.876Z,1.73
2022-08-09T14:39:59.027Z,1.17
2022-08-09T14:46:39.360Z,1.50
2022-08-09T14:50:24.976Z,1.40
2022-08-09T14:55:29.256Z,1.67
2022-08-09T15:00:36.111Z,1.40
2022-08-09T15:05:39.048Z,1.27
2022-08-09T15:10:42.104Z,1.20
2022-08-09T15:15:44.028Z,1.70
2022-08-09T15:21:54.616Z,2.08
2022-08-09T15:26:09.149Z,1.67
2022-08-09T15:31:21.282Z,1.33
2022-08-09T15:36:30.681Z,1.50
2022-08-09T15:41:32.803Z,1.75
2022-08-09T15:46:35.295Z,1.50
2022-08-09T15:52:02.703Z,1.33
2022-08-09T15:56:59.218Z,1.40
2022-08-09T16:02:03.666Z,1.48
2022-08-09T16:07:07.635Z,1.25
2022-08-09T16:12:11.263Z,1.40
2022-08-09T16:17:17.255Z,1.52
2022-08-09T16:22:19.241Z,1.42
2022-08-09T16:27:22.567Z,1.60
2022-08-09T16:32:53.505Z,1.52
2022-08-09T16:37:56.946Z,1.52
2022-08-09T16:43:02.194Z,1.70
2022-08-09T16:48:41.898Z,1.58
2022-08-09T16:53:32.521Z,1.40
2022-08-09T16:58:37.123Z,1.73
2022-08-09T17:03:41.817Z,1.85
2022-08-09T17:09:01.576Z,1.52
2022-08-09T17:14:06.524Z,1.52
2022-08-09T17:19:10.659Z,1.40
2022-08-09T17:24:28.400Z,1.63
2022-08-09T17:29:37.907Z,1.60
2022-08-09T17:35:03.730Z,1.50
2022-08-09T17:40:06.306Z,1.40
2022-08-09T17:45:37.673Z,1.42
2022-08-09T17:50:41.678Z,1.48
2022-08-09T17:56:03.361Z,1.60
2022-08-09T18:01:08.515Z,1.35
2022-08-09T18:06:14.917Z,1.58
2022-08-09T18:11:46.856Z,1.60
2022-08-09T18:16:57.676Z,1.48
2022-08-09T18:21:59.667Z,1.70
2022-08-09T18:27:03.764Z,1.40
2022-08-09T18:32:09.249Z,1.38
2022-08-09T18:37:48.119Z,1.55
2022-08-09T18:42:33.438Z,1.63
2022-08-09T18:47:37.627Z,1.88
2022-08-09T18:52:39.929Z,1.60
2022-08-09T18:57:45.395Z,1.55
2022-08-09T19:02:50.945Z,1.80
2022-08-09T19:08:04.813Z,1.52
2022-08-09T19:13:20.448Z,1.92
2022-08-09T19:18:33.690Z,2.65
2022-08-09T19:24:32.392Z,1.85
2022-08-09T19:29:09.500Z,1.77
2022-08-09T19:34:22.992Z,1.70
2022-08-09T19:39:43.208Z,2.20
2022-08-09T19:44:51.237Z,1.60
2022-08-09T19:50:07.638Z,1.70
2022-08-09T19:55:15.529Z,1.88
2022-08-09T20:00:17.808Z,1.90
2022-08-09T20:05:20.100Z,1.63
2022-08-09T20:10:33.947Z,1.63
2022-08-09T20:16:35.773Z,1.92
2022-08-09T20:21:02.061Z,1.63
2022-08-09T20:26:04.265Z,1.60
2022-08-09T20:31:09.174Z,1.88
2022-08-09T20:36:12.515Z,1.73
2022-08-09T20:41:14.767Z,2.13
2022-08-09T20:46:41.773Z,1.80
2022-08-09T20:51:41.331Z,1.90
2022-08-09T20:56:47.283Z,2.22
2022-08-09T21:01:53.489Z,1.73
2022-08-09T21:06:55.676Z,2.10
2022-08-09T21:18:21.220Z,1.98
2022-08-09T21:22:38.092Z,1.70
2022-08-09T21:28:01.490Z,2.47
2022-08-09T21:33:03.590Z,1.70
2022-08-09T21:38:09.482Z,1.90
2022-08-09T21:43:12.089Z,1.77
2022-08-09T21:48:23.487Z,2.00
2022-08-09T21:53:41.008Z,2.38
2022-08-09T21:58:43.419Z,2.20
2022-08-09T22:03:48.432Z,2.13
2022-08-09T22:09:01.653Z,2.10
2022-08-09T22:14:03.631Z,2.00
2022-08-09T22:19:57.755Z,2.30
2022-08-09T22:24:27.451Z,2.30
2022-08-09T22:29:46.206Z,2.58
2022-08-09T22:34:54.406Z,1.77
2022-08-09T22:40:06.008Z,2.35
2022-08-09T22:48:15.223Z,2.38
2022-08-09T22:50:32.799Z,3.00
2022-08-09T22:56:06.395Z,2.13
2022-08-09T23:00:56.627Z,2.20
2022-08-09T23:05:59.464Z,2.85
2022-08-09T23:11:01.912Z,1.88
2022-08-09T23:16:03.959Z,2.20
2022-08-09T23:21:06.472Z,1.75
2022-08-09T23:26:09.318Z,2.20
2022-08-09T23:31:11.491Z,2.50
2022-08-09T23:36:13.360Z,2.30
2022-08-09T23:41:28.271Z,2.08
2022-08-09T23:46:31.918Z,2.20
2022-08-09T23:51:33.772Z,2.03
2022-08-09T23:56:52.269Z,2.20
